Terminal Aerodrome Forecast
Issued by NWS Shreveport, LA

Home | Current Version | Previous Version | Text Only | Print | Product List | Glossary On
Versions: 1 2 3 4 5 6 7 8 9 10 11 12 13 14 15 16 17 18 19 20
000
FTUS44 KSHV 272355
TAFGGG
TAF
KGGG 272355Z 2800/2824 07010KT P6SM BKN040 OVC100
     FM280400 06011G17KT 5SM -SHRA VCTS BKN009 OVC020CB
      TEMPO 2804/2808 2SM TSRA BR OVC015CB
     FM281000 05010G15KT 5SM BR VCSH BKN004 OVC010
     FM281500 04010G15KT 5SM -SHRA BR VCTS BKN008 OVC015CB=

USA.gov is the U.S. government's official web portal to all federal, state and local government web resources and services.